sensor_id;sensor_type;location;lat;lon;timestamp;noise_LAeq;noise_LA_min;noise_LA_max;noise_LA01;noise_LA95
64393;Laerm;50712;49.506;10.400;2023-05-10T00:00:02;29.37;27.85;32.81;;
64393;Laerm;50712;49.506;10.400;2023-05-10T00:00:43;29.89;28.22;37.36;;
64393;Laerm;50712;49.506;10.400;2023-05-10T00:01:13;29.76;28.18;32.65;;
64393;Laerm;50712;49.506;10.400;2023-05-10T00:01:44;29.66;28.20;36.87;;
64393;Laerm;50712;49.506;10.400;2023-05-10T00:02:14;29.44;28.22;38.33;;
64393;Laerm;50712;49.506;10.400;2023-05-10T00:02:44;29.57;28.09;32.40;;
64393;Laerm;50712;49.506;10.400;2023-05-10T00:03:15;29.71;28.36;36.09;;
64393;Laerm;50712;49.506;10.400;2023-05-10T00:03:45;29.78;28.20;41.77;;
64393;Laerm;50712;49.506;10.400;2023-05-10T00:04:16;29.67;28.26;36.58;;
64393;Laerm;50712;49.506;10.400;2023-05-10T00:04:46;29.57;28.29;32.55;;
64393;Laerm;50712;49.506;10.400;2023-05-10T00:05:16;29.81;28.24;32.94;;
64393;Laerm;50712;49.506;10.400;2023-05-10T00:05:47;30.07;28.48;38.40;;
64393;Laerm;50712;49.506;10.400;2023-05-10T00:06:17;31.41;28.78;38.52;;
64393;Laerm;50712;49.506;10.400;2023-05-10T00:06:47;35.23;30.38;45.09;;
64393;Laerm;50712;49.506;10.400;2023-05-10T00:07:18;33.48;29.31;50.17;;
64393;Laerm;50712;49.506;10.400;2023-05-10T00:07:48;32.48;29.02;52.12;;
64393;Laerm;50712;49.506;10.400;2023-05-10T00:08:18;30.69;28.25;35.25;;
64393;Laerm;50712;49.506;10.400;2023-05-10T00:08:49;29.89;28.16;34.26;;
64393;Laerm;50712;49.506;10.400;2023-05-10T00:09:19;29.79;27.99;34.04;;
64393;Laerm;50712;49.506;10.400;2023-05-10T00:09:50;30.34;28.59;35.87;;
64393;Laerm;50712;49.506;10.400;2023-05-10T00:10:20;30.34;28.38;37.51;;
64393;Laerm;50712;49.506;10.400;2023-05-10T00:11:20;29.88;27.94;35.09;;
64393;Laerm;50712;49.506;10.400;2023-05-10T00:11:51;29.41;27.99;34.11;;
64393;Laerm;50712;49.506;10.400;2023-05-10T00:12:21;29.37;28.15;33.53;;
64393;Laerm;50712;49.506;10.400;2023-05-10T00:12:52;29.63;27.89;37.14;;
64393;Laerm;50712;49.506;10.400;2023-05-10T00:13:22;30.05;28.46;33.70;;
64393;Laerm;50712;49.506;10.400;2023-05-10T00:13:52;30.31;28.82;33.69;;
64393;Laerm;50712;49.506;10.400;2023-05-10T00:14:23;30.99;29.13;37.31;;
64393;Laerm;50712;49.506;10.400;2023-05-10T00:14:53;30.40;28.93;32.77;;
64393;Laerm;50712;49.506;10.400;2023-05-10T00:15:23;30.32;28.82;35.50;;
64393;Laerm;50712;49.506;10.400;2023-05-10T00:15:54;30.26;28.88;35.06;;
64393;Laerm;50712;49.506;10.400;2023-05-10T00:16:24;30.43;28.56;39.30;;
64393;Laerm;50712;49.506;10.400;2023-05-10T00:16:55;30.16;28.80;35.45;;
64393;Laerm;50712;49.506;10.400;2023-05-10T00:17:25;30.27;28.78;40.76;;
64393;Laerm;50712;49.506;10.400;2023-05-10T00:17:56;30.15;28.84;35.06;;
64393;Laerm;50712;49.506;10.400;2023-05-10T00:18:26;29.74;28.31;37.08;;
64393;Laerm;50712;49.506;10.400;2023-05-10T00:18:57;29.83;28.25;35.64;;
64393;Laerm;50712;49.506;10.400;2023-05-10T00:19:27;29.64;28.04;41.59;;
64393;Laerm;50712;49.506;10.400;2023-05-10T00:19:57;29.48;28.34;32.05;;
64393;Laerm;50712;49.506;10.400;2023-05-10T00:20:28;29.45;28.13;30.96;;
64393;Laerm;50712;49.506;10.400;2023-05-10T00:20:58;29.72;28.47;40.19;;
64393;Laerm;50712;49.506;10.400;2023-05-10T00:21:28;30.72;28.60;51.08;;
64393;Laerm;50712;49.506;10.400;2023-05-10T00:21:59;30.53;28.59;39.06;;
64393;Laerm;50712;49.506;10.400;2023-05-10T00:22:29;30.83;28.74;37.88;;
64393;Laerm;50712;49.506;10.400;2023-05-10T00:23:00;29.69;28.24;36.59;;
64393;Laerm;50712;49.506;10.400;2023-05-10T00:23:30;29.53;28.14;33.18;;
64393;Laerm;50712;49.506;10.400;2023-05-10T00:24:01;30.12;28.49;35.10;;
64393;Laerm;50712;49.506;10.400;2023-05-10T00:24:31;29.92;28.46;33.06;;
64393;Laerm;50712;49.506;10.400;2023-05-10T00:25:01;29.82;28.32;46.16;;
64393;Laerm;50712;49.506;10.400;2023-05-10T00:25:32;29.27;27.95;38.91;;
64393;Laerm;50712;49.506;10.400;2023-05-10T00:26:02;28.96;27.37;33.07;;
64393;Laerm;50712;49.506;10.400;2023-05-10T00:26:33;29.59;27.90;33.57;;
64393;Laerm;50712;49.506;10.400;2023-05-10T00:27:04;29.16;27.87;33.00;;
64393;Laerm;50712;49.506;10.400;2023-05-10T00:27:35;29.44;27.52;33.57;;
64393;Laerm;50712;49.506;10.400;2023-05-10T00:28:05;29.00;27.65;39.58;;
64393;Laerm;50712;49.506;10.400;2023-05-10T00:28:35;28.76;27.50;32.55;;
64393;Laerm;50712;49.506;10.400;2023-05-10T00:29:06;28.77;27.33;34.09;;
64393;Laerm;50712;49.506;10.400;2023-05-10T00:29:37;29.00;27.70;38.08;;
64393;Laerm;50712;49.506;10.400;2023-05-10T00:30:07;29.17;27.94;36.96;;
64393;Laerm;50712;49.506;10.400;2023-05-10T00:30:39;29.09;27.77;32.26;;
64393;Laerm;50712;49.506;10.400;2023-05-10T00:31:09;28.84;27.69;30.91;;
64393;Laerm;50712;49.506;10.400;2023-05-10T00:31:40;29.04;27.70;31.09;;
64393;Laerm;50712;49.506;10.400;2023-05-10T00:32:10;29.29;27.96;32.21;;
64393;Laerm;50712;49.506;10.400;2023-05-10T00:32:40;30.19;28.23;37.42;;
64393;Laerm;50712;49.506;10.400;2023-05-10T00:33:11;30.56;28.16;37.58;;
64393;Laerm;50712;49.506;10.400;2023-05-10T00:33:41;30.21;28.15;34.38;;
64393;Laerm;50712;49.506;10.400;2023-05-10T00:34:12;29.69;27.50;34.55;;
64393;Laerm;50712;49.506;10.400;2023-05-10T00:34:43;30.61;27.88;53.48;;
64393;Laerm;50712;49.506;10.400;2023-05-10T00:35:13;28.98;27.71;31.71;;
64393;Laerm;50712;49.506;10.400;2023-05-10T00:35:43;28.79;27.50;39.71;;
64393;Laerm;50712;49.506;10.400;2023-05-10T00:36:14;28.71;27.50;32.14;;
64393;Laerm;50712;49.506;10.400;2023-05-10T00:36:45;28.66;27.41;30.88;;
64393;Laerm;50712;49.506;10.400;2023-05-10T00:37:15;28.76;27.45;36.57;;
64393;Laerm;50712;49.506;10.400;2023-05-10T00:37:46;28.75;27.07;31.35;;
64393;Laerm;50712;49.506;10.400;2023-05-10T00:38:16;29.25;27.74;39.91;;
64393;Laerm;50712;49.506;10.400;2023-05-10T00:38:46;28.94;27.74;37.82;;
64393;Laerm;50712;49.506;10.400;2023-05-10T00:39:17;28.78;27.61;32.47;;
64393;Laerm;50712;49.506;10.400;2023-05-10T00:39:48;28.76;27.55;32.22;;
64393;Laerm;50712;49.506;10.400;2023-05-10T00:40:18;28.90;27.55;31.96;;
64393;Laerm;50712;49.506;10.400;2023-05-10T00:40:53;29.34;27.51;41.01;;
64393;Laerm;50712;49.506;10.400;2023-05-10T00:41:30;29.75;27.70;39.86;;
64393;Laerm;50712;49.506;10.400;2023-05-10T00:42:04;29.82;28.03;36.01;;
64393;Laerm;50712;49.506;10.400;2023-05-10T00:42:35;29.95;28.40;33.93;;
64393;Laerm;50712;49.506;10.400;2023-05-10T00:43:05;34.79;28.30;45.65;;
64393;Laerm;50712;49.506;10.400;2023-05-10T00:43:35;33.87;28.48;45.40;;
64393;Laerm;50712;49.506;10.400;2023-05-10T00:44:07;29.99;28.10;36.65;;
64393;Laerm;50712;49.506;10.400;2023-05-10T00:44:38;32.18;28.72;38.83;;
64393;Laerm;50712;49.506;10.400;2023-05-10T00:45:09;35.70;29.50;38.52;;
64393;Laerm;50712;49.506;10.400;2023-05-10T00:45:40;30.69;29.17;35.08;;
64393;Laerm;50712;49.506;10.400;2023-05-10T00:46:11;34.52;30.28;41.27;;
64393;Laerm;50712;49.506;10.400;2023-05-10T00:46:42;36.80;31.80;44.34;;
64393;Laerm;50712;49.506;10.400;2023-05-10T00:47:12;34.00;31.01;39.65;;
64393;Laerm;50712;49.506;10.400;2023-05-10T00:47:43;33.14;30.77;39.28;;
64393;Laerm;50712;49.506;10.400;2023-05-10T00:48:13;32.11;29.84;36.40;;
64393;Laerm;50712;49.506;10.400;2023-05-10T00:48:44;31.25;29.40;36.77;;
64393;Laerm;50712;49.506;10.400;2023-05-10T00:49:15;31.26;29.28;35.34;;
64393;Laerm;50712;49.506;10.400;2023-05-10T00:49:46;33.14;30.64;48.68;;
64393;Laerm;50712;49.506;10.400;2023-05-10T00:50:17;34.23;31.68;48.64;;
64393;Laerm;50712;49.506;10.400;2023-05-10T00:50:47;34.95;32.79;40.98;;
64393;Laerm;50712;49.506;10.400;2023-05-10T00:51:18;34.49;32.29;38.35;;
64393;Laerm;50712;49.506;10.400;2023-05-10T00:51:49;33.31;31.12;38.89;;
64393;Laerm;50712;49.506;10.400;2023-05-10T00:52:19;33.04;30.78;36.92;;
64393;Laerm;50712;49.506;10.400;2023-05-10T00:52:51;33.37;31.04;42.32;;
64393;Laerm;50712;49.506;10.400;2023-05-10T00:53:52;31.91;30.21;37.72;;
64393;Laerm;50712;49.506;10.400;2023-05-10T00:54:23;31.45;29.57;40.46;;
64393;Laerm;50712;49.506;10.400;2023-05-10T00:54:55;31.36;29.08;50.71;;
64393;Laerm;50712;49.506;10.400;2023-05-10T00:55:26;31.08;29.13;46.78;;
64393;Laerm;50712;49.506;10.400;2023-05-10T00:55:56;31.57;28.96;47.89;;
64393;Laerm;50712;49.506;10.400;2023-05-10T00:56:27;31.88;28.90;47.01;;
64393;Laerm;50712;49.506;10.400;2023-05-10T00:56:59;30.46;28.08;40.18;;
64393;Laerm;50712;49.506;10.400;2023-05-10T00:57:30;31.62;28.40;54.73;;
64393;Laerm;50712;49.506;10.400;2023-05-10T00:58:00;32.31;29.83;40.40;;
64393;Laerm;50712;49.506;10.400;2023-05-10T00:58:31;32.75;29.92;44.66;;
64393;Laerm;50712;49.506;10.400;2023-05-10T00:59:02;32.28;29.71;41.39;;
64393;Laerm;50712;49.506;10.400;2023-05-10T00:59:32;32.72;29.36;40.76;;
64393;Laerm;50712;49.506;10.400;2023-05-10T01:00:03;34.36;31.85;40.04;;
64393;Laerm;50712;49.506;10.400;2023-05-10T01:00:35;35.75;32.91;40.48;;
64393;Laerm;50712;49.506;10.400;2023-05-10T01:01:07;36.51;33.42;42.99;;
64393;Laerm;50712;49.506;10.400;2023-05-10T01:01:38;37.09;34.64;41.16;;
64393;Laerm;50712;49.506;10.400;2023-05-10T01:02:09;39.18;36.16;48.13;;
64393;Laerm;50712;49.506;10.400;2023-05-10T01:02:40;36.75;34.02;43.30;;
64393;Laerm;50712;49.506;10.400;2023-05-10T01:03:10;37.11;34.14;44.40;;
64393;Laerm;50712;49.506;10.400;2023-05-10T01:03:41;42.82;35.66;48.20;;
64393;Laerm;50712;49.506;10.400;2023-05-10T01:04:13;46.10;43.47;49.12;;
64393;Laerm;50712;49.506;10.400;2023-05-10T01:04:43;44.54;40.99;51.31;;
64393;Laerm;50712;49.506;10.400;2023-05-10T01:05:14;43.54;39.60;53.08;;
64393;Laerm;50712;49.506;10.400;2023-05-10T01:05:44;42.74;39.22;56.92;;
64393;Laerm;50712;49.506;10.400;2023-05-10T01:06:14;41.94;38.84;51.37;;
64393;Laerm;50712;49.506;10.400;2023-05-10T01:06:45;42.66;40.10;49.62;;
64393;Laerm;50712;49.506;10.400;2023-05-10T01:07:15;41.80;38.99;48.12;;
64393;Laerm;50712;49.506;10.400;2023-05-10T01:07:47;41.82;37.59;52.24;;
64393;Laerm;50712;49.506;10.400;2023-05-10T01:08:18;39.85;36.74;54.94;;
64393;Laerm;50712;49.506;10.400;2023-05-10T01:08:49;40.38;37.03;53.72;;
64393;Laerm;50712;49.506;10.400;2023-05-10T01:09:23;40.21;36.40;52.68;;
64393;Laerm;50712;49.506;10.400;2023-05-10T01:09:56;38.78;34.07;52.95;;
64393;Laerm;50712;49.506;10.400;2023-05-10T01:10:26;36.07;32.44;50.09;;
64393;Laerm;50712;49.506;10.400;2023-05-10T01:10:57;35.99;32.42;57.17;;
64393;Laerm;50712;49.506;10.400;2023-05-10T01:11:27;34.26;31.26;48.70;;
64393;Laerm;50712;49.506;10.400;2023-05-10T01:12:00;33.43;30.44;54.21;;
64393;Laerm;50712;49.506;10.400;2023-05-10T01:12:37;32.46;30.06;46.59;;
64393;Laerm;50712;49.506;10.400;2023-05-10T01:13:09;32.34;29.82;50.64;;
64393;Laerm;50712;49.506;10.400;2023-05-10T01:13:42;31.84;29.79;44.74;;
64393;Laerm;50712;49.506;10.400;2023-05-10T01:14:13;32.12;29.85;42.54;;
64393;Laerm;50712;49.506;10.400;2023-05-10T01:14:45;32.73;29.94;51.23;;
64393;Laerm;50712;49.506;10.400;2023-05-10T01:15:16;32.07;29.87;38.82;;
64393;Laerm;50712;49.506;10.400;2023-05-10T01:15:49;32.89;30.55;45.66;;
64393;Laerm;50712;49.506;10.400;2023-05-10T01:16:19;32.82;30.08;44.91;;
64393;Laerm;50712;49.506;10.400;2023-05-10T01:16:52;35.35;31.94;57.32;;
64393;Laerm;50712;49.506;10.400;2023-05-10T01:17:24;34.79;32.52;41.42;;
64393;Laerm;50712;49.506;10.400;2023-05-10T01:17:55;34.80;32.33;38.78;;
64393;Laerm;50712;49.506;10.400;2023-05-10T01:18:27;38.09;34.18;50.23;;
64393;Laerm;50712;49.506;10.400;2023-05-10T01:18:59;39.10;36.74;51.84;;
64393;Laerm;50712;49.506;10.400;2023-05-10T01:19:31;38.76;36.26;45.97;;
64393;Laerm;50712;49.506;10.400;2023-05-10T01:20:02;38.03;35.54;52.05;;
64393;Laerm;50712;49.506;10.400;2023-05-10T01:20:39;37.42;34.84;47.24;;
64393;Laerm;50712;49.506;10.400;2023-05-10T01:21:23;36.91;33.93;53.64;;
64393;Laerm;50712;49.506;10.400;2023-05-10T01:23:06;36.23;33.23;53.54;;
64393;Laerm;50712;49.506;10.400;2023-05-10T01:27:51;38.39;34.35;55.58;;
64393;Laerm;50712;49.506;10.400;2023-05-10T01:30:01;40.32;36.90;52.73;;
64393;Laerm;50712;49.506;10.400;2023-05-10T01:31:58;40.33;36.14;57.62;;
64393;Laerm;50712;49.506;10.400;2023-05-10T01:33:35;42.36;39.43;51.23;;
64393;Laerm;50712;49.506;10.400;2023-05-10T01:34:48;39.09;36.26;51.32;;
64393;Laerm;50712;49.506;10.400;2023-05-10T01:35:29;38.85;34.94;53.19;;
64393;Laerm;50712;49.506;10.400;2023-05-10T01:36:19;38.49;35.74;53.38;;
64393;Laerm;50712;49.506;10.400;2023-05-10T01:37:03;38.18;35.65;51.73;;
64393;Laerm;50712;49.506;10.400;2023-05-10T01:39:45;35.51;32.67;53.25;;
64393;Laerm;50712;49.506;10.400;2023-05-10T01:40:25;36.36;33.05;57.63;;
64393;Laerm;50712;49.506;10.400;2023-05-10T01:41:13;35.47;32.83;51.23;;
64393;Laerm;50712;49.506;10.400;2023-05-10T01:41:52;35.74;33.22;53.44;;
64393;Laerm;50712;49.506;10.400;2023-05-10T01:42:26;35.45;32.82;49.94;;
64393;Laerm;50712;49.506;10.400;2023-05-10T01:43:02;34.62;32.35;50.19;;
64393;Laerm;50712;49.506;10.400;2023-05-10T01:43:41;34.82;32.34;51.04;;
64393;Laerm;50712;49.506;10.400;2023-05-10T01:45:07;35.17;33.09;45.83;;
64393;Laerm;50712;49.506;10.400;2023-05-10T01:46:37;36.36;34.15;50.40;;
64393;Laerm;50712;49.506;10.400;2023-05-10T01:47:43;35.77;33.79;48.38;;
64393;Laerm;50712;49.506;10.400;2023-05-10T01:48:14;36.31;34.11;48.76;;
64393;Laerm;50712;49.506;10.400;2023-05-10T01:48:47;35.83;33.13;49.29;;
64393;Laerm;50712;49.506;10.400;2023-05-10T01:49:26;35.87;33.29;53.88;;
64393;Laerm;50712;49.506;10.400;2023-05-10T01:50:02;35.60;32.98;46.34;;
64393;Laerm;50712;49.506;10.400;2023-05-10T01:50:36;36.33;33.03;58.04;;
64393;Laerm;50712;49.506;10.400;2023-05-10T01:51:08;35.58;33.23;47.14;;
64393;Laerm;50712;49.506;10.400;2023-05-10T01:51:44;35.69;33.38;46.35;;
64393;Laerm;50712;49.506;10.400;2023-05-10T01:52:18;35.99;33.63;52.03;;
64393;Laerm;50712;49.506;10.400;2023-05-10T01:52:53;35.95;33.30;53.78;;
64393;Laerm;50712;49.506;10.400;2023-05-10T01:53:25;35.82;33.53;48.51;;
64393;Laerm;50712;49.506;10.400;2023-05-10T01:54:01;35.29;32.81;43.24;;
64393;Laerm;50712;49.506;10.400;2023-05-10T01:54:32;35.28;33.19;49.79;;
64393;Laerm;50712;49.506;10.400;2023-05-10T01:55:08;35.11;32.94;45.93;;
64393;Laerm;50712;49.506;10.400;2023-05-10T01:55:46;35.52;32.73;52.92;;
64393;Laerm;50712;49.506;10.400;2023-05-10T01:56:19;35.27;33.28;44.82;;
64393;Laerm;50712;49.506;10.400;2023-05-10T01:57:01;35.17;32.95;45.31;;
64393;Laerm;50712;49.506;10.400;2023-05-10T01:57:35;35.70;32.97;48.92;;
64393;Laerm;50712;49.506;10.400;2023-05-10T01:58:10;36.08;33.60;49.26;;
64393;Laerm;50712;49.506;10.400;2023-05-10T01:58:44;36.40;33.20;54.85;;
64393;Laerm;50712;49.506;10.400;2023-05-10T01:59:18;35.33;33.04;44.98;;
64393;Laerm;50712;49.506;10.400;2023-05-10T01:59:50;35.86;32.71;50.23;;
64393;Laerm;50712;49.506;10.400;2023-05-10T02:00:21;35.68;33.44;44.35;;
64393;Laerm;50712;49.506;10.400;2023-05-10T02:00:56;37.04;34.53;49.56;;
64393;Laerm;50712;49.506;10.400;2023-05-10T02:01:28;38.85;34.41;49.64;;
64393;Laerm;50712;49.506;10.400;2023-05-10T02:02:00;38.93;35.43;53.74;;
64393;Laerm;50712;49.506;10.400;2023-05-10T02:02:37;37.24;34.04;42.51;;
64393;Laerm;50712;49.506;10.400;2023-05-10T02:03:10;37.11;34.54;51.24;;
64393;Laerm;50712;49.506;10.400;2023-05-10T02:03:42;37.09;33.90;41.20;;
64393;Laerm;50712;49.506;10.400;2023-05-10T02:04:15;34.64;32.37;48.15;;
64393;Laerm;50712;49.506;10.400;2023-05-10T02:04:49;34.51;32.38;40.72;;
64393;Laerm;50712;49.506;10.400;2023-05-10T02:05:21;34.52;32.21;44.79;;
64393;Laerm;50712;49.506;10.400;2023-05-10T02:05:53;34.59;32.29;51.57;;
64393;Laerm;50712;49.506;10.400;2023-05-10T02:06:26;34.41;32.20;46.17;;
64393;Laerm;50712;49.506;10.400;2023-05-10T02:06:57;34.24;31.78;47.85;;
64393;Laerm;50712;49.506;10.400;2023-05-10T02:07:29;34.81;31.87;54.81;;
64393;Laerm;50712;49.506;10.400;2023-05-10T02:08:01;33.90;32.10;40.33;;
64393;Laerm;50712;49.506;10.400;2023-05-10T02:08:35;33.73;31.23;47.89;;
64393;Laerm;50712;49.506;10.400;2023-05-10T02:09:08;33.69;31.68;47.05;;
64393;Laerm;50712;49.506;10.400;2023-05-10T02:09:41;33.18;31.13;39.67;;
64393;Laerm;50712;49.506;10.400;2023-05-10T02:10:14;33.22;30.86;50.51;;
64393;Laerm;50712;49.506;10.400;2023-05-10T02:10:46;33.07;30.83;47.91;;
64393;Laerm;50712;49.506;10.400;2023-05-10T02:11:19;32.95;30.70;52.39;;
64393;Laerm;50712;49.506;10.400;2023-05-10T02:11:51;32.49;30.44;42.33;;
64393;Laerm;50712;49.506;10.400;2023-05-10T02:12:22;32.69;30.65;40.00;;
64393;Laerm;50712;49.506;10.400;2023-05-10T02:12:58;32.55;31.02;42.48;;
64393;Laerm;50712;49.506;10.400;2023-05-10T02:13:32;32.85;30.50;49.83;;
64393;Laerm;50712;49.506;10.400;2023-05-10T02:14:07;32.48;30.30;46.95;;
64393;Laerm;50712;49.506;10.400;2023-05-10T02:14:40;33.04;29.83;50.58;;
64393;Laerm;50712;49.506;10.400;2023-05-10T02:15:12;31.91;29.95;38.18;;
64393;Laerm;50712;49.506;10.400;2023-05-10T02:15:48;31.43;28.92;47.53;;
64393;Laerm;50712;49.506;10.400;2023-05-10T02:16:23;31.38;28.86;50.57;;
64393;Laerm;50712;49.506;10.400;2023-05-10T02:16:55;30.07;27.95;39.15;;
64393;Laerm;50712;49.506;10.400;2023-05-10T02:17:27;30.24;28.65;39.92;;
64393;Laerm;50712;49.506;10.400;2023-05-10T02:17:59;36.76;29.49;52.77;;
64393;Laerm;50712;49.506;10.400;2023-05-10T02:18:31;32.89;28.69;44.70;;
64393;Laerm;50712;49.506;10.400;2023-05-10T02:19:03;31.08;28.59;51.73;;
64393;Laerm;50712;49.506;10.400;2023-05-10T02:19:36;30.25;28.13;42.30;;
64393;Laerm;50712;49.506;10.400;2023-05-10T02:20:08;29.85;27.73;46.59;;
64393;Laerm;50712;49.506;10.400;2023-05-10T02:20:41;29.53;27.54;41.08;;
64393;Laerm;50712;49.506;10.400;2023-05-10T02:21:13;29.43;28.09;41.82;;
64393;Laerm;50712;49.506;10.400;2023-05-10T02:21:45;32.68;28.03;59.15;;
64393;Laerm;50712;49.506;10.400;2023-05-10T02:22:17;29.52;28.05;36.64;;
64393;Laerm;50712;49.506;10.400;2023-05-10T02:22:54;29.60;27.99;34.25;;
64393;Laerm;50712;49.506;10.400;2023-05-10T02:23:26;30.34;27.84;50.61;;
64393;Laerm;50712;49.506;10.400;2023-05-10T02:23:57;29.27;28.00;35.04;;
64393;Laerm;50712;49.506;10.400;2023-05-10T02:24:28;29.31;27.96;38.35;;
64393;Laerm;50712;49.506;10.400;2023-05-10T02:25:00;29.29;27.87;35.99;;
64393;Laerm;50712;49.506;10.400;2023-05-10T02:25:32;29.39;27.77;38.17;;
64393;Laerm;50712;49.506;10.400;2023-05-10T02:26:03;29.32;27.91;38.13;;
64393;Laerm;50712;49.506;10.400;2023-05-10T02:26:36;29.95;27.85;50.24;;
64393;Laerm;50712;49.506;10.400;2023-05-10T02:27:09;30.26;27.96;53.29;;
64393;Laerm;50712;49.506;10.400;2023-05-10T02:27:41;29.41;28.10;41.23;;
64393;Laerm;50712;49.506;10.400;2023-05-10T02:28:44;30.35;28.32;44.53;;
64393;Laerm;50712;49.506;10.400;2023-05-10T02:29:16;31.52;28.54;37.11;;
64393;Laerm;50712;49.506;10.400;2023-05-10T02:29:47;31.02;28.66;38.81;;
64393;Laerm;50712;49.506;10.400;2023-05-10T02:30:51;30.90;29.27;36.06;;
64393;Laerm;50712;49.506;10.400;2023-05-10T02:31:22;31.35;29.74;37.81;;
64393;Laerm;50712;49.506;10.400;2023-05-10T02:32:25;31.96;29.86;35.08;;
64393;Laerm;50712;49.506;10.400;2023-05-10T02:32:57;32.98;30.46;39.64;;
64393;Laerm;50712;49.506;10.400;2023-05-10T02:33:30;32.48;30.16;39.71;;
64393;Laerm;50712;49.506;10.400;2023-05-10T02:34:02;37.69;30.96;55.25;;
64393;Laerm;50712;49.506;10.400;2023-05-10T02:34:34;37.41;31.23;45.61;;
64393;Laerm;50712;49.506;10.400;2023-05-10T02:35:05;32.74;29.77;40.50;;
64393;Laerm;50712;49.506;10.400;2023-05-10T02:35:37;31.39;28.79;41.81;;
64393;Laerm;50712;49.506;10.400;2023-05-10T02:36:09;30.69;28.80;39.15;;
64393;Laerm;50712;49.506;10.400;2023-05-10T02:36:41;32.72;29.18;47.68;;
64393;Laerm;50712;49.506;10.400;2023-05-10T02:37:14;32.20;29.69;39.44;;
64393;Laerm;50712;49.506;10.400;2023-05-10T02:37:47;31.28;29.14;36.72;;
64393;Laerm;50712;49.506;10.400;2023-05-10T02:38:20;48.15;29.33;67.99;;
64393;Laerm;50712;49.506;10.400;2023-05-10T02:38:53;36.47;28.93;60.22;;
64393;Laerm;50712;49.506;10.400;2023-05-10T02:39:24;36.21;28.31;51.14;;
64393;Laerm;50712;49.506;10.400;2023-05-10T02:39:56;29.71;28.17;37.32;;
64393;Laerm;50712;49.506;10.400;2023-05-10T02:40:28;29.55;28.02;38.03;;
64393;Laerm;50712;49.506;10.400;2023-05-10T02:41:01;29.49;27.89;35.86;;
64393;Laerm;50712;49.506;10.400;2023-05-10T02:41:32;29.83;28.26;38.68;;
64393;Laerm;50712;49.506;10.400;2023-05-10T02:42:03;29.69;27.99;40.78;;
64393;Laerm;50712;49.506;10.400;2023-05-10T02:42:37;30.03;28.15;42.07;;
64393;Laerm;50712;49.506;10.400;2023-05-10T02:43:12;38.77;28.77;51.71;;
64393;Laerm;50712;49.506;10.400;2023-05-10T02:43:44;44.99;34.80;53.49;;
64393;Laerm;50712;49.506;10.400;2023-05-10T02:44:18;40.87;34.48;47.42;;
64393;Laerm;50712;49.506;10.400;2023-05-10T02:44:53;35.58;30.07;42.25;;
64393;Laerm;50712;49.506;10.400;2023-05-10T02:45:28;31.63;28.79;50.75;;
64393;Laerm;50712;49.506;10.400;2023-05-10T02:46:00;30.44;28.14;49.86;;
64393;Laerm;50712;49.506;10.400;2023-05-10T02:46:30;29.70;28.14;41.99;;
64393;Laerm;50712;49.506;10.400;2023-05-10T02:47:01;30.68;28.28;40.38;;
64393;Laerm;50712;49.506;10.400;2023-05-10T02:47:33;36.97;29.69;44.77;;
64393;Laerm;50712;49.506;10.400;2023-05-10T02:48:04;36.66;31.38;45.64;;
64393;Laerm;50712;49.506;10.400;2023-05-10T02:48:35;34.83;30.29;41.57;;
64393;Laerm;50712;49.506;10.400;2023-05-10T02:49:05;43.79;31.87;51.79;;
64393;Laerm;50712;49.506;10.400;2023-05-10T02:49:36;43.62;35.70;49.63;;
64393;Laerm;50712;49.506;10.400;2023-05-10T02:50:07;38.09;32.17;45.22;;
64393;Laerm;50712;49.506;10.400;2023-05-10T02:50:40;33.60;30.09;38.67;;
64393;Laerm;50712;49.506;10.400;2023-05-10T02:51:16;34.43;29.03;45.81;;
64393;Laerm;50712;49.506;10.400;2023-05-10T02:52:27;30.97;28.79;38.96;;
64393;Laerm;50712;49.506;10.400;2023-05-10T02:53:09;33.81;28.64;56.61;;
64393;Laerm;50712;49.506;10.400;2023-05-10T02:53:43;31.44;28.80;41.18;;
64393;Laerm;50712;49.506;10.400;2023-05-10T02:54:27;31.55;28.83;50.94;;
64393;Laerm;50712;49.506;10.400;2023-05-10T02:55:01;30.62;28.20;40.81;;
64393;Laerm;50712;49.506;10.400;2023-05-10T02:55:36;31.24;28.38;40.23;;
64393;Laerm;50712;49.506;10.400;2023-05-10T02:56:13;37.02;28.49;55.48;;
64393;Laerm;50712;49.506;10.400;2023-05-10T02:56:51;31.96;28.25;43.74;;
64393;Laerm;50712;49.506;10.400;2023-05-10T02:57:27;33.53;28.13;49.13;;
64393;Laerm;50712;49.506;10.400;2023-05-10T02:58:00;48.34;29.19;66.52;;
64393;Laerm;50712;49.506;10.400;2023-05-10T02:58:31;33.87;28.98;47.34;;
64393;Laerm;50712;49.506;10.400;2023-05-10T02:59:01;39.01;29.23;56.47;;
64393;Laerm;50712;49.506;10.400;2023-05-10T02:59:32;37.00;29.30;50.52;;
64393;Laerm;50712;49.506;10.400;2023-05-10T03:00:03;33.93;28.60;47.74;;
64393;Laerm;50712;49.506;10.400;2023-05-10T03:00:34;36.18;30.07;50.23;;
64393;Laerm;50712;49.506;10.400;2023-05-10T03:01:06;33.79;29.45;44.37;;
64393;Laerm;50712;49.506;10.400;2023-05-10T03:01:37;33.19;29.48;42.76;;
64393;Laerm;50712;49.506;10.400;2023-05-10T03:02:09;33.35;29.72;39.56;;
64393;Laerm;50712;49.506;10.400;2023-05-10T03:02:40;33.10;29.53;40.80;;
64393;Laerm;50712;49.506;10.400;2023-05-10T03:03:12;33.84;29.45;53.31;;
64393;Laerm;50712;49.506;10.400;2023-05-10T03:03:42;33.58;29.26;42.18;;
64393;Laerm;50712;49.506;10.400;2023-05-10T03:04:13;33.45;29.82;45.03;;
64393;Laerm;50712;49.506;10.400;2023-05-10T03:04:43;32.83;29.41;42.03;;
64393;Laerm;50712;49.506;10.400;2023-05-10T03:05:14;32.79;29.63;40.23;;
64393;Laerm;50712;49.506;10.400;2023-05-10T03:05:44;34.81;29.18;43.96;;
64393;Laerm;50712;49.506;10.400;2023-05-10T03:06:15;35.71;31.33;42.96;;
64393;Laerm;50712;49.506;10.400;2023-05-10T03:06:46;35.24;30.75;41.28;;
64393;Laerm;50712;49.506;10.400;2023-05-10T03:07:17;34.24;29.57;45.62;;
64393;Laerm;50712;49.506;10.400;2023-05-10T03:07:52;35.10;29.80;45.03;;
64393;Laerm;50712;49.506;10.400;2023-05-10T03:08:23;34.75;30.00;53.19;;
64393;Laerm;50712;49.506;10.400;2023-05-10T03:08:54;44.24;30.51;54.11;;
64393;Laerm;50712;49.506;10.400;2023-05-10T03:09:25;34.60;29.51;41.86;;
64393;Laerm;50712;49.506;10.400;2023-05-10T03:09:56;33.85;29.57;43.54;;
64393;Laerm;50712;49.506;10.400;2023-05-10T03:10:27;34.41;29.75;51.99;;
64393;Laerm;50712;49.506;10.400;2023-05-10T03:12:27;54.06;29.14;72.83;;
64393;Laerm;50712;49.506;10.400;2023-05-10T03:15:03;34.06;29.03;46.98;;
64393;Laerm;50712;49.506;10.400;2023-05-10T03:16:16;34.93;29.60;45.64;;
64393;Laerm;50712;49.506;10.400;2023-05-10T03:17:06;49.85;31.25;60.03;;
64393;Laerm;50712;49.506;10.400;2023-05-10T03:17:48;47.38;36.11;56.16;;
64393;Laerm;50712;49.506;10.400;2023-05-10T03:18:23;38.08;31.31;47.66;;
64393;Laerm;50712;49.506;10.400;2023-05-10T03:19:09;42.51;30.06;61.81;;
64393;Laerm;50712;49.506;10.400;2023-05-10T03:19:57;44.52;30.67;55.34;;
64393;Laerm;50712;49.506;10.400;2023-05-10T03:20:38;54.49;42.34;61.86;;